createdAt,value
2023-02-22T00:02:14.282Z,98894.42
2023-02-22T00:04:42.095Z,98894.23
2023-02-22T00:07:10.014Z,98900.30
2023-02-22T00:09:37.782Z,98900.41
2023-02-22T00:12:05.741Z,98903.13
2023-02-22T00:14:33.813Z,98907.86
2023-02-22T00:17:02.634Z,98907.60
2023-02-22T00:19:31.300Z,98907.46
2023-02-22T00:22:00.308Z,98903.98
2023-02-22T00:24:29.628Z,98905.09
2023-02-22T00:27:15.669Z,98905.48
2023-02-22T00:29:47.321Z,98903.79
2023-02-22T00:32:15.857Z,98908.23
2023-02-22T00:34:43.872Z,98911.14
2023-02-22T00:37:11.845Z,98910.98
2023-02-22T00:39:40.526Z,98914.50
2023-02-22T00:42:09.621Z,98910.31
2023-02-22T00:44:37.490Z,98909.48
2023-02-22T00:47:05.436Z,98912.02
2023-02-22T00:49:33.319Z,98911.03
2023-02-22T00:52:01.906Z,98908.41
2023-02-22T00:54:29.771Z,98911.61
2023-02-22T00:56:58.363Z,98916.23
2023-02-22T00:59:27.473Z,98917.31
2023-02-22T01:01:55.255Z,98920.33
2023-02-22T01:04:23.280Z,98921.08
2023-02-22T01:06:52.071Z,98920.39
2023-02-22T01:09:21.712Z,98923.40
2023-02-22T01:11:55.499Z,98926.17
2023-02-22T01:14:28.159Z,98928.45
2023-02-22T01:16:57.246Z,98926.18
2023-02-22T01:19:25.634Z,98927.08
2023-02-22T01:21:54.766Z,98927.45
2023-02-22T01:24:22.588Z,98927.46
2023-02-22T01:26:52.605Z,98927.83
2023-02-22T01:29:21.351Z,98928.85
2023-02-22T01:31:54.951Z,98929.22
2023-02-22T01:34:24.322Z,98930.88
2023-02-22T01:36:52.162Z,98927.90
2023-02-22T01:39:20.130Z,98928.99
2023-02-22T01:41:47.988Z,98928.36
2023-02-22T01:44:22.802Z,98932.41
2023-02-22T01:46:50.684Z,98932.92
2023-02-22T01:49:19.530Z,98933.48
2023-02-22T01:51:52.688Z,98935.06
2023-02-22T01:54:45.728Z,98933.88
2023-02-22T01:57:21.366Z,98934.83
2023-02-22T01:59:53.942Z,98933.96
2023-02-22T02:02:22.532Z,98934.70
2023-02-22T02:04:50.445Z,98935.27
2023-02-22T02:07:21.572Z,98940.91
2023-02-22T02:09:58.318Z,98940.13
2023-02-22T02:12:29.280Z,98940.05
2023-02-22T02:15:29.069Z,98940.16
2023-02-22T02:18:07.423Z,98940.04
2023-02-22T02:20:40.467Z,98943.07
2023-02-22T02:23:32.491Z,98942.22
2023-02-22T02:26:21.844Z,98943.42
2023-02-22T02:29:04.633Z,98943.75
2023-02-22T02:31:50.640Z,98942.04
2023-02-22T02:34:40.334Z,98942.58
2023-02-22T02:37:36.066Z,98945.78
2023-02-22T02:40:17.888Z,98947.89
2023-02-22T02:43:05.285Z,98945.42
2023-02-22T02:45:48.392Z,98944.89
2023-02-22T02:48:21.506Z,98941.90
2023-02-22T02:50:50.587Z,98946.22
2023-02-22T02:53:25.459Z,98945.52
2023-02-22T02:55:54.103Z,98951.28
2023-02-22T02:58:23.776Z,98951.44
2023-02-22T03:01:01.542Z,98952.48
2023-02-22T03:03:51.829Z,98963.15
2023-02-22T03:06:32.659Z,98961.27
2023-02-22T03:09:31.019Z,98961.45
2023-02-22T03:12:14.051Z,98963.73
2023-02-22T03:15:02.963Z,98967.53
2023-02-22T03:17:48.274Z,98969.40
2023-02-22T03:20:31.687Z,98971.40
2023-02-22T03:23:07.473Z,98978.38
2023-02-22T03:25:43.456Z,98982.00
2023-02-22T03:28:15.262Z,98988.09
2023-02-22T03:30:49.237Z,98989.58
2023-02-22T03:33:33.721Z,98990.04
2023-02-22T03:36:09.598Z,98990.91
2023-02-22T03:38:40.364Z,98994.13
2023-02-22T03:41:10.817Z,98994.88
2023-02-22T03:43:43.125Z,98995.63
2023-02-22T03:46:12.917Z,98995.69
2023-02-22T03:48:44.270Z,98993.97
2023-02-22T03:51:16.776Z,99000.02
2023-02-22T03:53:44.962Z,99000.27
2023-02-22T03:56:20.583Z,99001.42
2023-02-22T03:58:49.918Z,99003.95
2023-02-22T04:01:19.968Z,99004.27
2023-02-22T04:03:47.835Z,99005.73
2023-02-22T04:06:16.170Z,99007.02
2023-02-22T04:08:44.340Z,99010.77
2023-02-22T04:11:12.518Z,99007.27
2023-02-22T04:13:40.378Z,99010.82
2023-02-22T04:16:09.062Z,99011.08
2023-02-22T04:18:37.183Z,99009.19
2023-02-22T04:21:05.618Z,99011.16
2023-02-22T04:23:33.483Z,99011.40
2023-02-22T04:26:01.452Z,99013.52
2023-02-22T04:28:29.211Z,99018.45
2023-02-22T04:30:57.463Z,99016.38
2023-02-22T04:33:25.492Z,99017.81
2023-02-22T04:35:53.252Z,99019.27
2023-02-22T04:38:21.399Z,99017.49
2023-02-22T04:40:49.260Z,99018.10
2023-02-22T04:43:17.011Z,99020.39
2023-02-22T04:45:45.708Z,99019.76
2023-02-22T04:48:14.187Z,99024.73
2023-02-22T04:50:42.365Z,99028.08
2023-02-22T04:53:11.151Z,99028.48
2023-02-22T04:55:39.223Z,99029.73
2023-02-22T04:58:09.510Z,99032.92
2023-02-22T05:00:37.424Z,99034.19
2023-02-22T05:03:05.425Z,99031.09
2023-02-22T05:05:33.305Z,99033.09
2023-02-22T05:08:01.217Z,99033.54
2023-02-22T05:10:29.682Z,99035.19
2023-02-22T05:12:57.465Z,99034.30
2023-02-22T05:15:25.714Z,99032.31
2023-02-22T05:17:54.132Z,99029.64
2023-02-22T05:20:28.797Z,99028.35
2023-02-22T05:22:57.936Z,99032.73
2023-02-22T05:25:27.873Z,99034.14
2023-02-22T05:27:59.276Z,99036.45
2023-02-22T05:30:31.401Z,99037.20
2023-02-22T05:33:00.159Z,99041.45
2023-02-22T05:35:29.346Z,99043.80
2023-02-22T05:37:58.656Z,99046.60
2023-02-22T05:40:27.743Z,99051.52
2023-02-22T05:42:57.182Z,99052.95
2023-02-22T05:45:27.439Z,99055.21
2023-02-22T05:47:55.743Z,99056.43
2023-02-22T05:50:24.843Z,99059.53
2023-02-22T05:52:53.519Z,99061.09
2023-02-22T05:55:23.734Z,99066.37
2023-02-22T05:57:52.626Z,99068.08
2023-02-22T06:00:23.937Z,99068.73
2023-02-22T06:03:00.037Z,99072.75
2023-02-22T06:05:30.124Z,99071.61
2023-02-22T06:07:58.634Z,99075.19
2023-02-22T06:10:27.515Z,99083.49
2023-02-22T06:12:56.714Z,99089.73
2023-02-22T06:15:26.981Z,99092.98
2023-02-22T06:17:57.909Z,99096.38
2023-02-22T06:20:28.186Z,99096.88
2023-02-22T06:22:58.649Z,99100.88
2023-02-22T06:25:31.319Z,99102.66
2023-02-22T06:28:00.510Z,99104.11
2023-02-22T06:30:29.666Z,99104.34
2023-02-22T06:32:57.758Z,99106.81
2023-02-22T06:35:26.608Z,99105.99
2023-02-22T06:37:54.477Z,99106.62
2023-02-22T06:40:22.358Z,99108.95
2023-02-22T06:42:50.547Z,99108.01
2023-02-22T06:45:18.696Z,99110.67
2023-02-22T06:47:47.472Z,99111.19
2023-02-22T06:50:30.131Z,99112.98
2023-02-22T06:52:59.333Z,99114.09
2023-02-22T06:55:32.518Z,99121.41
2023-02-22T06:58:02.160Z,99122.84
2023-02-22T07:00:32.342Z,99122.42
2023-02-22T07:03:01.074Z,99126.23
2023-02-22T07:05:29.312Z,99126.91
2023-02-22T07:08:04.538Z,99132.29
2023-02-22T07:10:34.542Z,99132.83
2023-02-22T07:13:03.678Z,99130.80
2023-02-22T07:15:33.067Z,99134.82
2023-02-22T07:18:01.932Z,99134.64
2023-02-22T07:20:32.186Z,99131.07
2023-02-22T07:23:01.460Z,99132.34
2023-02-22T07:25:29.342Z,99132.80
2023-02-22T07:27:57.764Z,99132.73
2023-02-22T07:30:31.749Z,99132.09
2023-02-22T07:33:06.042Z,99134.17
2023-02-22T07:35:49.392Z,99132.20
2023-02-22T07:38:19.505Z,99133.58
2023-02-22T07:40:47.390Z,99138.34
2023-02-22T07:43:16.985Z,99137.08
2023-02-22T07:45:46.512Z,99136.92
2023-02-22T07:48:17.572Z,99136.85
2023-02-22T07:50:46.241Z,99136.20
2023-02-22T07:53:18.140Z,99134.56
2023-02-22T07:55:46.537Z,99141.70
2023-02-22T07:58:16.145Z,99142.80
2023-02-22T08:00:44.675Z,99145.64
2023-02-22T08:03:13.759Z,99146.94
2023-02-22T08:05:45.813Z,99151.70
2023-02-22T08:08:19.732Z,99149.23
2023-02-22T08:10:50.272Z,99150.29
2023-02-22T08:13:19.347Z,99155.77
2023-02-22T08:15:50.147Z,99151.52
2023-02-22T08:18:20.487Z,99152.52
2023-02-22T08:20:50.555Z,99154.64
2023-02-22T08:23:20.326Z,99153.59
2023-02-22T08:25:48.779Z,99150.30
2023-02-22T08:28:20.025Z,99148.55
2023-02-22T08:30:47.971Z,99151.81
2023-02-22T08:33:19.694Z,99152.33
2023-02-22T08:35:52.173Z,99153.67
2023-02-22T08:38:27.922Z,99152.73
2023-02-22T08:40:56.663Z,99155.31
2023-02-22T08:43:24.846Z,99154.58
2023-02-22T08:45:54.446Z,99159.09
2023-02-22T08:48:24.268Z,99165.29
2023-02-22T08:50:52.151Z,99163.77
2023-02-22T08:53:20.080Z,99160.94
2023-02-22T08:55:47.944Z,99164.60
2023-02-22T08:58:15.916Z,99164.50
2023-02-22T09:00:45.119Z,99166.81
2023-02-22T09:03:15.390Z,99169.58
2023-02-22T09:05:44.695Z,99166.42
2023-02-22T09:08:13.439Z,99168.34
2023-02-22T09:10:41.623Z,99172.30
2023-02-22T09:13:09.564Z,99171.99
2023-02-22T09:15:39.723Z,99174.49
2023-02-22T09:18:09.937Z,99176.69
2023-02-22T09:20:38.295Z,99177.38
2023-02-22T09:23:07.184Z,99178.08
2023-02-22T09:25:35.894Z,99175.27
2023-02-22T09:28:04.462Z,99174.80
2023-02-22T09:30:35.424Z,99179.02
2023-02-22T09:33:05.817Z,99179.18
2023-02-22T09:35:36.538Z,99179.08
2023-02-22T09:38:08.769Z,99180.63
2023-02-22T09:40:45.062Z,99174.83
2023-02-22T09:43:25.141Z,99177.00
2023-02-22T09:46:19.527Z,99173.19
2023-02-22T09:49:00.510Z,99174.92
2023-02-22T09:51:58.957Z,99173.31
2023-02-22T09:54:35.691Z,99178.29
2023-02-22T09:57:16.348Z,99172.30
2023-02-22T09:59:54.091Z,99170.08
2023-02-22T10:02:32.441Z,99170.06
2023-02-22T10:05:21.149Z,99170.45
2023-02-22T10:07:58.444Z,99171.48
2023-02-22T10:10:33.688Z,99169.64
2023-02-22T10:13:24.512Z,99168.01
2023-02-22T10:15:58.516Z,99171.63
2023-02-22T10:18:51.570Z,99172.26
2023-02-22T10:21:57.731Z,99172.60
2023-02-22T10:24:47.768Z,99173.95
2023-02-22T10:27:29.334Z,99176.09
2023-02-22T10:30:24.575Z,99174.97
2023-02-22T10:33:01.427Z,99170.67
2023-02-22T10:35:38.685Z,99175.82
2023-02-22T10:38:20.836Z,99171.72
2023-02-22T10:41:24.102Z,99169.46
2023-02-22T10:43:51.969Z,99169.75
2023-02-22T10:46:22.867Z,99170.32
2023-02-22T10:48:54.680Z,99170.79
2023-02-22T10:51:22.800Z,99170.64
2023-02-22T10:53:59.541Z,99174.34
2023-02-22T10:56:28.685Z,99167.50
2023-02-22T10:59:00.611Z,99169.56
2023-02-22T11:01:31.426Z,99169.27
2023-02-22T11:04:04.746Z,99168.81
2023-02-22T11:06:34.938Z,99170.45
2023-02-22T11:09:13.301Z,99165.36
2023-02-22T11:11:44.139Z,99164.73
2023-02-22T11:14:24.531Z,99165.02
2023-02-22T11:16:58.564Z,99160.08
2023-02-22T11:19:32.923Z,99159.77
2023-02-22T11:22:19.185Z,99158.14
2023-02-22T11:24:58.281Z,99156.17
2023-02-22T11:27:54.263Z,99157.44
2023-02-22T11:30:29.330Z,99156.48
2023-02-22T11:33:12.682Z,99158.82
2023-02-22T11:35:52.839Z,99153.89
2023-02-22T11:38:32.779Z,99149.60
2023-02-22T11:41:15.288Z,99147.65
2023-02-22T11:43:48.747Z,99154.02
2023-02-22T11:46:31.755Z,99152.33
2023-02-22T11:49:05.311Z,99151.95
2023-02-22T11:51:47.441Z,99155.23
2023-02-22T11:54:25.497Z,99152.02
2023-02-22T11:57:16.769Z,99154.48
2023-02-22T12:00:06.769Z,99155.50
2023-02-22T12:03:03.397Z,99155.65
2023-02-22T12:05:42.740Z,99156.27
2023-02-22T12:08:33.460Z,99150.64
2023-02-22T12:11:20.550Z,99154.17
2023-02-22T12:14:05.730Z,99152.11
2023-02-22T12:17:07.484Z,99152.52
2023-02-22T12:20:01.765Z,99152.54
2023-02-22T12:22:34.707Z,99146.64
2023-02-22T12:25:10.124Z,99149.71
2023-02-22T12:27:53.147Z,99147.09
2023-02-22T12:30:32.920Z,99147.20
2023-02-22T12:33:06.428Z,99146.67
2023-02-22T12:35:39.315Z,99142.36
2023-02-22T12:38:23.617Z,99140.06
2023-02-22T12:41:04.132Z,99135.17
2023-02-22T12:43:39.134Z,99136.14
2023-02-22T12:46:11.929Z,99134.94
2023-02-22T12:48:54.842Z,99136.80
2023-02-22T12:51:32.344Z,99140.60
2023-02-22T12:54:21.991Z,99144.38
2023-02-22T12:56:55.865Z,99145.08
2023-02-22T12:59:39.011Z,99146.46
2023-02-22T13:02:21.602Z,99143.52
2023-02-22T13:04:50.407Z,99145.39
2023-02-22T13:07:33.314Z,99147.85
2023-02-22T13:10:32.411Z,99150.45
2023-02-22T13:13:04.988Z,99147.50
2023-02-22T13:15:51.940Z,99151.61
2023-02-22T13:18:47.874Z,99150.40
2023-02-22T13:21:20.964Z,99147.71
2023-02-22T13:24:12.783Z,99149.77
2023-02-22T13:26:51.505Z,99153.15
2023-02-22T13:29:28.765Z,99158.13
2023-02-22T13:32:25.778Z,99158.25
2023-02-22T13:35:06.430Z,99158.75
2023-02-22T13:38:14.890Z,99160.92
2023-02-22T13:40:55.329Z,99164.19
2023-02-22T13:43:41.534Z,99163.27
2023-02-22T13:46:47.957Z,99164.06
2023-02-22T13:49:19.822Z,99168.79
2023-02-22T13:51:59.112Z,99166.59
2023-02-22T13:54:30.042Z,99166.64
2023-02-22T13:56:58.402Z,99167.20
2023-02-22T13:59:39.564Z,99165.64
2023-02-22T14:02:35.832Z,99166.50
2023-02-22T14:05:45.268Z,99169.83
2023-02-22T14:08:18.912Z,99172.88
2023-02-22T14:10:49.590Z,99171.29
2023-02-22T14:13:23.128Z,99169.91
2023-02-22T14:16:00.417Z,99167.55
2023-02-22T14:18:41.974Z,99168.02
2023-02-22T14:21:13.563Z,99167.15
2023-02-22T14:23:51.310Z,99165.25
2023-02-22T14:26:37.789Z,99164.89
2023-02-22T14:29:05.577Z,99166.61
2023-02-22T14:31:55.452Z,99164.44
2023-02-22T14:34:43.186Z,99166.32
2023-02-22T14:37:17.555Z,99163.90
2023-02-22T14:39:51.240Z,99163.60
2023-02-22T14:42:38.410Z,99168.23
2023-02-22T14:45:09.674Z,99170.79
2023-02-22T14:48:04.167Z,99167.61
2023-02-22T14:50:41.269Z,99173.51
2023-02-22T14:53:41.595Z,99169.67
2023-02-22T14:56:18.333Z,99175.02
2023-02-22T14:59:11.501Z,99177.00
2023-02-22T15:01:58.407Z,99177.21
2023-02-22T15:04:33.913Z,99178.29
2023-02-22T15:07:27.907Z,99179.48
2023-02-22T15:10:39.116Z,99176.70
2023-02-22T15:13:16.398Z,99178.38
2023-02-22T15:15:49.295Z,99175.20
2023-02-22T15:18:18.596Z,99177.14
2023-02-22T15:20:49.526Z,99177.80
2023-02-22T15:23:18.156Z,99175.77
2023-02-22T15:25:50.182Z,99177.03
2023-02-22T15:28:19.040Z,99178.64
2023-02-22T15:30:48.160Z,99183.59
2023-02-22T15:33:24.796Z,99185.10
2023-02-22T15:35:57.213Z,99187.68
2023-02-22T15:38:31.536Z,99188.62
2023-02-22T15:41:05.617Z,99190.13
2023-02-22T15:43:34.687Z,99192.53
2023-02-22T15:46:03.446Z,99189.33
2023-02-22T15:48:33.333Z,99192.33
2023-02-22T15:51:10.639Z,99191.45
2023-02-22T15:53:42.177Z,99193.05
2023-02-22T15:56:40.446Z,99194.80
2023-02-22T15:59:20.872Z,99200.48
2023-02-22T16:01:54.365Z,99199.52
2023-02-22T16:04:25.572Z,99199.09
2023-02-22T16:07:17.148Z,99199.32
